Time;durP1;ratioP1;P1;durP2;ratioP2;P2;SDS_P1;SDS_P2;PMS_P1;PMS_P2;Temp;Humidity;BMP_temperature;BMP_pressure;BME280_temperature;BME280_humidity;BME280_pressure;Samples;Min_cycle;Max_cycle;Signal;HPM_P1;HPM_P2
2023/07/26 08:18:28;;;;;;;4.50;2.72;;;;;;;12.70;91.34;96477.50;2086064;27;21084;-64
2023/07/26 08:19:29;;;;;;;6.70;3.30;;;;;;;12.72;90.26;96473.03;2075834;28;20198;-64
2023/07/26 08:20:35;;;;;;;6.00;3.05;;;;;;;12.72;89.30;96469.56;2078374;28;20436;-64
2023/07/26 08:21:36;;;;;;;6.15;2.40;;;;;;;12.86;89.33;96477.50;2076048;28;20197;-64
2023/07/26 08:22:38;;;;;;;5.13;2.67;;;;;;;13.05;88.94;96476.44;2078271;28;20717;-64
2023/07/26 08:23:40;;;;;;;5.13;2.53;;;;;;;13.12;89.32;96475.16;2070877;28;20229;-63
2023/07/26 08:24:42;;;;;;;5.07;2.45;;;;;;;13.14;88.90;96473.31;2067657;28;20201;-64
2023/07/26 08:25:44;;;;;;;7.43;2.33;;;;;;;13.10;88.72;96479.63;2067471;28;20201;-64
2023/07/26 08:26:46;;;;;;;5.93;1.90;;;;;;;13.04;87.68;96478.22;2067293;28;20197;-66
2023/07/26 08:27:47;;;;;;;6.32;2.35;;;;;;;13.15;88.18;96479.38;2067827;28;20226;-66
2023/07/26 08:28:49;;;;;;;4.55;1.80;;;;;;;13.16;87.41;96476.66;2067335;28;20229;-66
2023/07/26 08:31:07;;;;;;;3.10;2.00;;;;;;;13.21;86.60;96482.47;2099825;27;20557;-64
2023/07/26 09:23:04;;;;;;;1.75;1.17;;;;;;;12.33;90.68;96487.38;2085093;28;20582;-65
2023/07/26 09:25:07;;;;;;;5.43;1.20;;;;;;;12.48;92.52;96490.97;2091071;28;20568;-64
2023/07/26 09:26:08;;;;;;;3.88;1.35;;;;;;;12.50;92.92;96490.88;2090058;28;20195;-65
2023/07/26 09:28:12;;;;;;;3.20;1.23;;;;;;;12.51;92.00;96493.41;2084702;28;20559;-65
2023/07/26 09:29:16;;;;;;;1.70;1.00;;;;;;;12.64;92.25;96492.72;2081529;28;20343;-65
2023/07/26 09:30:21;;;;;;;5.75;1.67;;;;;;;12.71;93.15;96491.47;2077561;28;20611;-66
2023/07/26 09:31:30;;;;;;;2.25;1.60;;;;;;;12.66;91.40;96494.31;2083125;28;20745;-66
2023/07/26 09:33:33;;;;;;;3.60;1.83;;;;;;;12.68;91.99;96494.25;2083173;28;20602;-64
2023/07/26 09:58:07;;;;;;;2.97;1.70;;;;;;;12.03;94.22;96509.03;2083916;28;20551;-63
2023/07/26 09:59:10;;;;;;;5.32;1.30;;;;;;;12.08;91.14;96498.31;2083116;28;20295;-63
2023/07/26 10:00:12;;;;;;;4.30;1.67;;;;;;;12.06;90.61;96498.41;2075942;28;20193;-63
2023/07/26 10:01:17;;;;;;;2.00;1.20;;;;;;;12.08;88.86;96490.47;2078990;28;20198;-63
2023/07/26 10:02:20;;;;;;;2.72;1.25;;;;;;;12.16;88.85;96496.13;2082068;28;20202;-64
2023/07/26 10:03:22;;;;;;;3.30;1.60;;;;;;;12.46;89.97;96498.03;2078151;28;20225;-64
2023/07/26 10:04:38;;;;;;;3.20;1.70;;;;;;;12.65;89.33;96500.50;2080390;28;20295;-63
2023/07/26 10:05:47;;;;;;;2.47;1.25;;;;;;;12.47;87.14;96491.00;2078240;28;20198;-64
2023/07/26 10:06:53;;;;;;;5.13;1.60;;;;;;;12.69;87.07;96503.78;2075931;28;20570;-63
2023/07/26 10:07:55;;;;;;;8.85;1.52;;;;;;;12.85;87.45;96495.91;2075137;28;20256;-63
2023/07/26 10:09:00;;;;;;;2.55;1.30;;;;;;;12.86;85.94;96500.22;2079649;28;20721;-64
2023/07/26 10:10:06;;;;;;;4.80;1.38;;;;;;;12.89;86.57;96494.81;2079794;28;20685;-64
2023/07/26 10:11:10;;;;;;;2.63;1.50;;;;;;;13.03;86.17;96494.88;2076993;28;20565;-64
2023/07/26 10:12:13;;;;;;;3.47;1.40;;;;;;;13.02;84.82;96498.41;2082081;28;20235;-64
2023/07/26 10:13:16;;;;;;;3.45;1.45;;;;;;;13.43;86.77;96491.75;2081711;28;20223;-64
2023/07/26 10:14:24;;;;;;;2.65;1.25;;;;;;;13.35;85.08;96491.34;2077467;28;20300;-64
2023/07/26 10:15:28;;;;;;;4.05;1.20;;;;;;;13.45;84.50;96497.75;2078152;28;20284;-64
2023/07/26 10:16:29;;;;;;;2.92;1.40;;;;;;;13.71;86.32;96498.00;2077169;28;20200;-64
2023/07/26 10:17:32;;;;;;;5.40;1.75;;;;;;;13.81;86.03;96506.16;2080518;28;20683;-64
2023/07/26 10:18:35;;;;;;;4.00;1.85;;;;;;;14.03;86.60;96511.81;2076197;28;20260;-64
2023/07/26 10:19:38;;;;;;;2.60;1.33;;;;;;;13.78;84.62;96506.38;2081300;28;20616;-64
2023/07/26 10:20:42;;;;;;;3.78;1.95;;;;;;;13.94;84.40;96504.50;2080262;28;20668;-65
2023/07/26 10:21:46;;;;;;;2.90;1.75;;;;;;;13.84;84.63;96505.97;2077702;28;20202;-64
2023/07/26 10:22:49;;;;;;;3.95;2.00;;;;;;;13.94;84.80;96503.66;2082716;28;20702;-66
2023/07/26 10:23:52;;;;;;;3.78;2.10;;;;;;;13.98;84.44;96502.50;2077503;28;20404;-66
2023/07/26 10:24:56;;;;;;;5.32;2.10;;;;;;;14.30;85.46;96507.59;2078368;28;20193;-66
2023/07/26 10:26:03;;;;;;;4.97;2.20;;;;;;;14.56;84.40;96499.88;2083417;28;20196;-67
2023/07/26 10:27:06;;;;;;;4.45;2.42;;;;;;;14.69;83.62;96506.06;2083217;28;20322;-67
2023/07/26 10:28:09;;;;;;;4.15;1.90;;;;;;;14.75;83.80;96499.56;2079508;28;20189;-67
2023/07/26 10:29:10;;;;;;;4.30;2.05;;;;;;;15.35;85.69;96499.16;2082658;28;20199;-66
2023/07/26 10:30:12;;;;;;;3.75;2.30;;;;;;;15.43;83.55;96501.28;2078769;28;20197;-66
2023/07/26 10:31:14;;;;;;;4.20;1.85;;;;;;;15.13;83.02;96497.09;2078328;28;20205;-66
2023/07/26 10:32:16;;;;;;;8.15;2.50;;;;;;;15.09;82.70;96495.59;2080690;28;20196;-66
2023/07/26 10:33:17;;;;;;;6.13;1.80;;;;;;;15.21;82.50;96495.75;2079400;28;20197;-66
2023/07/26 10:34:20;;;;;;;3.92;2.35;;;;;;;15.13;82.08;96504.16;2080459;28;20192;-66
2023/07/26 10:35:29;;;;;;;6.05;2.35;;;;;;;15.44;82.48;96492.44;2082426;28;20206;-66
2023/07/26 10:36:33;;;;;;;7.15;2.65;;;;;;;15.47;78.87;96497.50;2081278;28;20298;-66
2023/07/26 10:37:35;;;;;;;5.45;2.20;;;;;;;15.39;79.23;96493.69;2078839;28;20204;-66
2023/07/26 10:38:40;;;;;;;6.40;2.30;;;;;;;15.48;78.54;96498.34;2076347;28;20221;-66
2023/07/26 10:39:42;;;;;;;5.32;2.00;;;;;;;15.90;77.97;96495.59;2080450;28;20205;-66
2023/07/26 10:40:44;;;;;;;3.95;2.17;;;;;;;16.23;77.31;96494.19;2080867;28;20848;-66
2023/07/26 10:41:50;;;;;;;4.05;2.13;;;;;;;16.77;74.86;96488.59;2083013;28;20204;-67
2023/07/26 10:42:52;;;;;;;4.88;2.65;;;;;;;16.92;75.40;96485.81;2074936;28;20657;-66
2023/07/26 10:44:09;;;;;;;3.67;2.25;;;;;;;16.82;75.14;96488.25;2076566;28;20692;-66
2023/07/26 10:45:38;;;;;;;3.17;1.63;;;;;;;16.36;76.15;96481.84;2081719;28;20693;-66
2023/07/26 10:46:54;;;;;;;4.07;1.60;;;;;;;16.45;73.59;96485.63;2081113;28;20261;-66
2023/07/26 10:47:55;;;;;;;6.88;2.20;;;;;;;16.29;73.24;96485.84;2080448;28;20197;-66
2023/07/26 10:48:56;;;;;;;4.43;1.92;;;;;;;16.56;74.62;96490.13;2079668;28;20256;-66
2023/07/26 10:50:05;;;;;;;4.40;2.00;;;;;;;16.75;74.32;96484.38;2082420;28;20276;-66
2023/07/26 10:51:45;;;;;;;6.00;1.88;;;;;;;17.08;70.98;96494.28;2079400;28;20406;-66
2023/07/26 10:52:47;;;;;;;4.82;2.38;;;;;;;17.11;71.17;96494.06;2080402;28;20338;-66
2023/07/26 10:53:48;;;;;;;3.15;1.80;;;;;;;17.42;71.74;96493.56;2077608;28;20331;-66
2023/07/26 10:54:51;;;;;;;6.13;2.20;;;;;;;17.46;70.38;96489.78;2077265;28;20209;-66
2023/07/26 10:56:05;;;;;;;5.43;2.08;;;;;;;17.89;70.88;96496.22;2079585;28;20201;-66
2023/07/26 10:57:17;;;;;;;3.85;2.20;;;;;;;17.21;68.19;96496.03;2079416;28;20193;-66
2023/07/26 10:58:18;;;;;;;5.80;2.08;;;;;;;17.48;68.61;96492.28;2074920;28;20218;-66
2023/07/26 10:59:20;;;;;;;7.75;2.47;;;;;;;17.37;68.00;96488.66;2079554;28;20681;-66
2023/07/26 11:00:33;;;;;;;4.53;2.20;;;;;;;17.48;67.04;96493.13;2077240;28;20201;-66
2023/07/26 11:01:40;;;;;;;7.88;1.88;;;;;;;17.90;68.91;96480.28;2079718;28;20944;-64
2023/07/26 11:02:45;;;;;;;5.93;2.30;;;;;;;18.08;67.71;96491.25;2081697;28;20197;-64
2023/07/26 11:03:47;;;;;;;6.05;2.95;;;;;;;18.32;67.37;96492.09;2079474;28;20242;-64
2023/07/26 11:04:49;;;;;;;6.35;4.25;;;;;;;17.61;67.40;96490.41;2078483;28;20205;-63
2023/07/26 11:05:55;;;;;;;16.08;9.40;;;;;;;17.74;68.90;96499.09;2083863;28;20547;-64
2023/07/26 11:07:02;;;;;;;5.90;3.55;;;;;;;17.91;66.10;96475.81;2081773;28;20246;-63
2023/07/26 11:08:07;;;;;;;6.85;2.80;;;;;;;17.43;66.78;96482.06;2079118;28;20289;-63
2023/07/26 11:09:19;;;;;;;5.70;2.15;;;;;;;16.90;69.55;96482.41;2074625;28;20231;-63
2023/07/26 11:10:29;;;;;;;6.10;2.00;;;;;;;17.10;69.50;96481.84;2069648;28;20198;-63
2023/07/26 11:11:51;;;;;;;4.97;2.35;;;;;;;17.74;67.29;96475.31;2074698;28;20206;-64
2023/07/26 11:13:12;;;;;;;6.63;3.10;;;;;;;18.02;66.01;96470.59;2073288;28;20193;-64
2023/07/26 11:14:17;;;;;;;12.02;4.65;;;;;;;17.85;67.06;96461.31;2072410;28;20217;-64
2023/07/26 11:15:32;;;;;;;6.65;2.63;;;;;;;17.37;66.94;96474.59;2072456;28;20193;-64
2023/07/26 11:16:54;;;;;;;5.47;2.95;;;;;;;17.19;67.68;96479.47;2073341;28;20209;-64
2023/07/26 11:17:59;;;;;;;6.35;2.92;;;;;;;17.41;68.22;96481.38;2069257;28;20294;-64
2023/07/26 11:19:01;;;;;;;7.47;3.28;;;;;;;17.83;67.34;96467.66;2070955;28;20225;-64
2023/07/26 11:20:04;;;;;;;4.15;2.60;;;;;;;18.36;67.20;96461.81;2072962;28;20259;-64
2023/07/26 11:21:06;;;;;;;6.20;2.30;;;;;;;18.02;65.99;96475.88;2073080;28;20201;-64
2023/07/26 11:22:07;;;;;;;5.75;2.10;;;;;;;17.69;65.10;96476.63;2078366;28;20197;-63
2023/07/26 11:23:28;;;;;;;6.25;2.50;;;;;;;17.76;65.65;96468.13;2077564;28;20205;-64
2023/07/26 11:24:30;;;;;;;5.82;2.90;;;;;;;17.57;65.95;96475.75;2071812;28;20198;-64
2023/07/26 11:25:34;;;;;;;5.07;2.60;;;;;;;17.65;64.74;96470.75;2072736;28;20201;-64
2023/07/26 11:26:41;;;;;;;4.55;2.55;;;;;;;17.33;65.48;96466.09;2074254;28;20294;-63
2023/07/26 11:27:44;;;;;;;5.65;2.05;;;;;;;17.48;65.87;96468.53;2075814;28;20197;-63
2023/07/26 11:28:45;;;;;;;4.28;2.45;;;;;;;17.52;66.10;96470.84;2074800;28;20852;-64
2023/07/26 11:29:47;;;;;;;9.80;2.17;;;;;;;17.60;66.20;96467.63;2077954;28;20197;-64
2023/07/26 11:30:52;;;;;;;7.38;2.00;;;;;;;17.53;65.53;96464.56;2074861;28;20205;-64
2023/07/26 11:31:53;;;;;;;7.13;2.22;;;;;;;17.40;67.18;96464.66;2074800;28;20201;-64
2023/07/26 11:32:56;;;;;;;5.30;2.80;;;;;;;17.94;66.05;96463.25;2072562;28;20206;-64
2023/07/26 11:33:57;;;;;;;4.65;1.92;;;;;;;17.83;65.26;96470.31;2070310;28;20221;-63
2023/07/26 11:34:59;;;;;;;4.15;2.08;;;;;;;17.60;65.48;96464.97;2071609;28;20197;-63
2023/07/26 11:36:03;;;;;;;4.40;2.60;;;;;;;17.19;64.11;96461.84;2075117;28;20186;-63
2023/07/26 11:37:07;;;;;;;6.55;2.60;;;;;;;16.95;65.00;96464.47;2077641;28;20702;-64
2023/07/26 11:38:14;;;;;;;4.50;2.35;;;;;;;16.79;65.19;96468.22;2074871;28;20201;-64
2023/07/26 11:39:24;;;;;;;5.20;2.28;;;;;;;16.55;65.73;96470.81;2074179;28;20301;-63
2023/07/26 11:40:25;;;;;;;6.18;2.67;;;;;;;16.66;65.52;96462.16;2072853;28;20734;-63
2023/07/26 11:41:27;;;;;;;4.75;2.45;;;;;;;16.72;65.83;96472.25;2073246;28;20229;-63
2023/07/26 11:42:30;;;;;;;5.55;2.55;;;;;;;16.80;65.24;96466.44;2074942;28;20603;-63
2023/07/26 11:43:32;;;;;;;4.05;2.33;;;;;;;17.33;65.06;96468.75;2074835;28;20585;-63
2023/07/26 11:44:34;;;;;;;4.78;2.22;;;;;;;17.77;64.26;96461.88;2074267;28;20679;-63
2023/07/26 11:45:37;;;;;;;5.45;2.65;;;;;;;18.34;64.30;96469.84;2072540;28;20230;-63
2023/07/26 11:46:41;;;;;;;4.47;2.40;;;;;;;18.59;63.04;96471.41;2069710;28;20646;-64
2023/07/26 11:47:44;;;;;;;4.93;2.33;;;;;;;19.07;58.88;96466.72;2069723;28;20226;-63
2023/07/26 11:48:46;;;;;;;6.93;2.92;;;;;;;18.82;58.45;96473.19;2072408;28;20340;-63
2023/07/26 11:49:47;;;;;;;4.88;2.25;;;;;;;18.43;59.86;96468.28;2072546;28;20309;-63
2023/07/26 11:50:53;;;;;;;4.38;2.67;;;;;;;18.08;60.78;96475.41;2072479;28;20662;-63
2023/07/26 11:51:55;;;;;;;6.22;2.28;;;;;;;18.50;60.77;96473.94;2073897;28;20209;-65
2023/07/26 11:53:08;;;;;;;4.95;2.55;;;;;;;18.74;59.78;96469.34;2076227;28;20661;-63
2023/07/26 11:54:12;;;;;;;8.85;2.53;;;;;;;19.31;59.07;96469.19;2073629;28;20217;-63
2023/07/26 11:55:13;;;;;;;4.38;2.53;;;;;;;19.45;58.17;96467.19;2075007;28;20221;-64
2023/07/26 11:56:15;;;;;;;5.20;2.33;;;;;;;19.14;59.37;96473.22;2074962;28;20198;-64
2023/07/26 11:57:20;;;;;;;6.45;2.63;;;;;;;18.79;58.87;96466.28;2071918;28;20203;-63
2023/07/26 11:58:22;;;;;;;4.95;2.40;;;;;;;18.27;59.84;96477.44;2068777;28;20229;-63
2023/07/26 11:59:24;;;;;;;4.75;2.70;;;;;;;18.17;60.68;96479.13;2074576;28;20202;-63
2023/07/26 12:00:26;;;;;;;9.15;2.13;;;;;;;18.50;60.74;96473.94;2073071;28;20247;-63
2023/07/26 12:01:28;;;;;;;11.18;2.53;;;;;;;18.71;60.78;96460.81;2072495;28;20199;-63
2023/07/26 12:02:30;;;;;;;5.78;2.63;;;;;;;19.12;60.43;96471.66;2072134;28;20696;-64
2023/07/26 12:03:32;;;;;;;9.30;2.78;;;;;;;19.24;59.09;96473.31;2074114;28;20603;-63
2023/07/26 12:04:35;;;;;;;4.95;2.30;;;;;;;18.79;58.76;96466.28;2075437;28;20193;-63
2023/07/26 12:05:42;;;;;;;3.53;1.92;;;;;;;19.29;58.91;96472.91;2072798;28;20233;-63
2023/07/26 12:06:44;;;;;;;6.82;2.13;;;;;;;19.37;57.79;96462.53;2069959;28;20285;-63
2023/07/26 12:07:51;;;;;;;8.23;2.63;;;;;;;19.32;58.12;96470.84;2070918;28;20201;-64
2023/07/26 12:08:53;;;;;;;5.90;2.65;;;;;;;19.07;59.10;96464.09;2074217;28;20240;-63
2023/07/26 12:09:55;;;;;;;5.90;2.10;;;;;;;19.19;60.11;96452.50;2076636;28;20276;-63
2023/07/26 12:11:02;;;;;;;9.13;2.78;;;;;;;18.85;60.01;96463.16;2075395;28;20207;-63
2023/07/26 12:12:04;;;;;;;5.18;2.55;;;;;;;18.53;60.58;96466.59;2073502;28;20237;-63
2023/07/26 12:13:23;;;;;;;7.00;3.03;;;;;;;17.65;62.67;96464.59;2074875;28;20905;-62
2023/07/26 12:14:31;;;;;;;4.25;2.20;;;;;;;17.66;62.61;96471.56;2074887;28;20200;-63
2023/07/26 12:15:58;;;;;;;5.40;2.45;;;;;;;17.30;61.43;96466.31;2074648;28;20228;-62
2023/07/26 12:16:59;;;;;;;5.55;2.35;;;;;;;17.42;62.12;96468.03;2068780;28;20289;-63
2023/07/26 12:18:02;;;;;;;5.00;2.10;;;;;;;17.22;61.90;96468.69;2072939;28;20280;-63
2023/07/26 12:19:04;;;;;;;6.50;2.60;;;;;;;17.07;62.26;96479.41;2073282;28;20217;-63
2023/07/26 12:20:08;;;;;;;5.75;2.60;;;;;;;16.87;64.46;96478.19;2073570;28;20232;-63
2023/07/26 12:21:22;;;;;;;4.25;2.20;;;;;;;16.71;64.68;96481.13;2073029;28;20206;-62
2023/07/26 12:22:24;;;;;;;5.40;2.75;;;;;;;16.71;65.68;96483.75;2069715;28;20247;-63
2023/07/26 12:23:27;;;;;;;6.53;2.80;;;;;;;16.65;65.81;96482.38;2071007;28;20257;-63
2023/07/26 12:24:29;;;;;;;5.53;1.90;;;;;;;16.74;66.07;96488.78;2070660;28;20609;-64
2023/07/26 12:25:38;;;;;;;4.97;2.45;;;;;;;16.31;64.82;96490.03;2071350;28;20210;-64
2023/07/26 12:26:44;;;;;;;6.18;2.50;;;;;;;16.16;66.32;96499.91;2067726;28;20198;-63
2023/07/26 12:27:52;;;;;;;6.90;2.28;;;;;;;16.15;66.69;96487.66;2072534;28;20193;-64
2023/07/26 12:28:54;;;;;;;11.20;2.40;;;;;;;16.24;67.31;96488.81;2071123;28;20225;-63
2023/07/26 12:29:56;;;;;;;4.10;2.30;;;;;;;16.37;67.06;96487.97;2075494;28;20247;-63
2023/07/26 12:30:58;;;;;;;6.55;2.20;;;;;;;16.41;67.20;96490.25;2074379;28;20245;-64
2023/07/26 12:32:03;;;;;;;4.38;2.35;;;;;;;16.47;67.00;96486.34;2073097;28;20193;-64
2023/07/26 12:33:15;;;;;;;5.20;2.35;;;;;;;16.39;66.84;96486.03;2074156;28;20198;-63
2023/07/26 12:34:17;;;;;;;6.25;2.20;;;;;;;16.24;66.20;96493.22;2069633;28;20296;-63
2023/07/26 12:35:23;;;;;;;6.07;2.95;;;;;;;16.33;66.38;96487.34;2074394;28;20205;-63
2023/07/26 12:36:45;;;;;;;7.25;1.67;;;;;;;16.38;66.54;96493.13;2072329;28;20198;-63
2023/07/26 12:37:49;;;;;;;8.23;2.58;;;;;;;16.39;66.24;96492.16;2075787;28;20935;-63
2023/07/26 12:38:51;;;;;;;3.67;1.73;;;;;;;16.68;66.21;96502.41;2070904;28;20280;-63
2023/07/26 12:39:52;;;;;;;4.82;2.15;;;;;;;16.65;66.16;96502.66;2073579;28;20197;-63
2023/07/26 12:40:54;;;;;;;9.18;3.05;;;;;;;16.59;66.59;96496.00;2074991;28;20697;-63
2023/07/26 12:41:55;;;;;;;6.43;2.67;;;;;;;16.97;66.51;96499.50;2074132;28;20197;-63
2023/07/26 12:42:56;;;;;;;7.30;2.30;;;;;;;16.91;65.17;96494.69;2076247;28;20204;-63
2023/07/26 12:43:59;;;;;;;4.55;2.30;;;;;;;17.12;65.18;96495.75;2074640;28;20654;-63
2023/07/26 12:45:00;;;;;;;6.28;2.70;;;;;;;17.46;65.13;96487.13;2072799;28;20285;-63
2023/07/26 12:46:02;;;;;;;5.95;2.50;;;;;;;17.93;65.05;96495.03;2075407;28;21072;-63
2023/07/26 12:47:04;;;;;;;5.45;2.72;;;;;;;18.38;63.36;96499.53;2073160;28;21182;-63
2023/07/26 12:48:08;;;;;;;4.95;2.72;;;;;;;18.03;64.72;96498.69;2075233;28;20205;-64
2023/07/26 12:49:10;;;;;;;7.30;2.10;;;;;;;17.36;64.33;96494.88;2066683;28;20186;-63
2023/07/26 12:50:12;;;;;;;11.48;2.35;;;;;;;17.00;64.82;96496.66;2068573;28;20205;-63
2023/07/26 12:51:13;;;;;;;5.63;2.85;;;;;;;17.14;65.43;96508.81;2071053;28;20633;-63
2023/07/26 12:52:15;;;;;;;6.25;2.80;;;;;;;17.34;64.30;96485.41;2070273;28;20194;-63
2023/07/26 12:53:18;;;;;;;6.85;2.47;;;;;;;17.71;63.66;96501.97;2070830;28;20589;-63
2023/07/26 12:54:19;;;;;;;5.00;2.20;;;;;;;18.13;62.25;96490.88;2070989;28;20558;-64
2023/07/26 12:55:21;;;;;;;8.80;3.67;;;;;;;18.10;62.78;96491.94;2072406;28;20676;-63
2023/07/26 12:56:23;;;;;;;7.38;2.45;;;;;;;18.47;61.34;96487.41;2072492;28;20202;-63
2023/07/26 12:57:25;;;;;;;6.10;2.75;;;;;;;18.48;61.31;96497.03;2072082;28;20244;-63
2023/07/26 12:58:26;;;;;;;8.57;2.50;;;;;;;18.62;59.96;96494.09;2079152;28;20736;-63
2023/07/26 12:59:28;;;;;;;15.05;2.75;;;;;;;17.95;61.56;96478.16;2079122;28;20209;-63
2023/07/26 13:00:30;;;;;;;5.15;2.30;;;;;;;17.93;62.59;96490.63;2074635;28;20202;-64
2023/07/26 13:01:32;;;;;;;4.85;2.45;;;;;;;17.77;62.56;96488.28;2073794;28;20209;-62
2023/07/26 13:02:33;;;;;;;10.27;2.75;;;;;;;17.25;63.41;96489.56;2070999;28;20743;-63
2023/07/26 13:03:35;;;;;;;5.50;2.50;;;;;;;17.46;63.75;96490.59;2076942;28;20707;-62
2023/07/26 13:04:37;;;;;;;13.90;6.20;;;;;;;17.67;63.67;96494.38;2070864;28;20236;-62
2023/07/26 13:05:38;;;;;;;9.27;4.85;;;;;;;17.66;64.12;96484.78;2073620;28;20202;-62
2023/07/26 13:06:39;;;;;;;12.20;6.78;;;;;;;17.80;63.34;96497.75;2076756;28;20279;-61
2023/07/26 13:07:41;;;;;;;6.35;3.00;;;;;;;17.58;61.96;96491.47;2074842;28;20282;-63
2023/07/26 13:08:44;;;;;;;8.50;3.10;;;;;;;17.59;62.60;96497.59;2070911;28;20810;-63
2023/07/26 13:09:45;;;;;;;7.15;2.60;;;;;;;17.94;61.70;96488.81;2074110;28;20189;-63
2023/07/26 13:10:47;;;;;;;6.78;2.42;;;;;;;17.99;61.81;96488.47;2076243;28;20201;-63
2023/07/26 13:11:48;;;;;;;6.50;2.85;;;;;;;18.07;60.67;96492.19;2071545;28;20743;-63
2023/07/26 13:12:50;;;;;;;7.40;3.00;;;;;;;18.18;61.32;96490.53;2071812;28;20193;-63
2023/07/26 13:13:51;;;;;;;6.75;2.72;;;;;;;18.15;59.96;96488.13;2072487;28;20316;-63
2023/07/26 13:14:53;;;;;;;7.53;2.70;;;;;;;18.57;59.18;96486.53;2075611;28;20292;-63
2023/07/26 13:15:54;;;;;;;5.07;2.50;;;;;;;18.82;58.23;96474.00;2075796;28;20197;-62
2023/07/26 13:16:56;;;;;;;4.03;2.10;;;;;;;19.45;58.08;96470.66;2071856;28;20260;-63
2023/07/26 13:17:57;;;;;;;5.30;2.50;;;;;;;19.46;56.88;96480.28;2071432;28;20650;-62
2023/07/26 13:19:00;;;;;;;5.78;2.95;;;;;;;20.26;56.38;96480.66;2075642;28;20232;-63
2023/07/26 13:20:02;;;;;;;16.30;6.40;;;;;;;19.38;54.56;96483.56;2073833;28;20402;-63
2023/07/26 13:21:04;;;;;;;6.82;2.50;;;;;;;18.93;56.91;96475.78;2073798;28;20987;-63
2023/07/26 13:22:06;;;;;;;6.78;2.63;;;;;;;18.64;57.63;96486.06;2074341;28;20243;-63
2023/07/26 13:23:08;;;;;;;5.30;2.63;;;;;;;18.60;59.12;96469.59;2072428;28;20289;-63
2023/07/26 13:24:10;;;;;;;6.47;3.10;;;;;;;18.63;58.94;96485.22;2069736;28;20190;-63
2023/07/26 13:25:11;;;;;;;9.00;3.35;;;;;;;18.79;58.55;96484.81;2070549;28;20722;-63
2023/07/26 13:26:13;;;;;;;6.88;2.92;;;;;;;18.58;59.09;96477.66;2070922;28;20247;-63
2023/07/26 13:27:14;;;;;;;6.40;3.22;;;;;;;18.43;58.86;96490.28;2071157;28;20711;-62
2023/07/26 13:28:16;;;;;;;5.45;2.60;;;;;;;18.39;58.84;96480.91;2072271;28;20255;-63
2023/07/26 13:29:17;;;;;;;8.77;3.47;;;;;;;18.68;59.13;96485.69;2074158;28;20205;-63
2023/07/26 13:30:19;;;;;;;5.95;2.35;;;;;;;18.93;58.40;96481.09;2074323;28;20201;-63
2023/07/26 13:31:20;;;;;;;7.22;2.33;;;;;;;18.86;58.28;96477.25;2074875;28;20212;-63
2023/07/26 13:32:22;;;;;;;7.63;2.50;;;;;;;18.65;57.91;96474.50;2072698;28;20197;-63
2023/07/26 13:33:23;;;;;;;6.63;2.40;;;;;;;18.90;58.21;96476.06;2072158;28;20230;-63
2023/07/26 13:34:29;;;;;;;5.20;2.40;;;;;;;19.52;58.34;96479.78;2072155;28;20251;-64
2023/07/26 13:35:31;;;;;;;8.45;2.50;;;;;;;19.67;56.81;96474.19;2072652;28;20672;-63
2023/07/26 13:36:32;;;;;;;4.78;2.55;;;;;;;20.35;56.11;96477.22;2073973;28;20205;-63
2023/07/26 13:37:36;;;;;;;6.10;2.72;;;;;;;19.93;56.15;96473.81;2071046;28;20197;-63
2023/07/26 13:38:38;;;;;;;5.45;2.70;;;;;;;19.46;56.71;96477.63;2069928;28;20248;-63
2023/07/26 13:39:39;;;;;;;9.77;2.80;;;;;;;19.99;56.02;96463.50;2071237;28;20252;-63
2023/07/26 13:40:41;;;;;;;4.57;2.30;;;;;;;19.80;56.02;96482.75;2070270;28;20197;-63
2023/07/26 13:41:42;;;;;;;8.95;2.80;;;;;;;19.62;56.05;96479.00;2070606;28;20201;-63
2023/07/26 13:42:44;;;;;;;5.78;2.40;;;;;;;19.38;56.49;96480.94;2069387;28;20593;-63
2023/07/26 13:43:45;;;;;;;6.63;3.00;;;;;;;19.60;55.71;96470.38;2067654;28;20226;-62
2023/07/26 13:44:48;;;;;;;5.90;2.65;;;;;;;19.45;55.65;96483.06;2072663;28;20678;-63
2023/07/26 13:45:49;;;;;;;4.80;2.17;;;;;;;19.45;55.04;96472.47;2073257;28;20205;-63
2023/07/26 13:46:53;;;;;;;5.30;2.40;;;;;;;19.13;55.33;96470.69;2069792;28;20241;-63
2023/07/26 13:47:54;;;;;;;4.00;2.05;;;;;;;19.42;56.44;96474.41;2070448;28;20201;-63
2023/07/26 13:48:56;;;;;;;5.35;2.42;;;;;;;20.00;55.31;96472.31;2072417;28;20225;-63
2023/07/26 13:49:58;;;;;;;7.47;2.95;;;;;;;19.58;53.27;96471.31;2073357;28;20842;-62
2023/07/26 13:50:59;;;;;;;11.70;2.95;;;;;;;19.82;54.70;96467.63;2071443;28;20231;-63
2023/07/26 13:52:00;;;;;;;11.13;2.60;;;;;;;20.04;54.81;96466.59;2070999;28;20284;-62
2023/07/26 13:53:02;;;;;;;6.28;2.78;;;;;;;19.58;55.10;96470.50;2068357;28;20240;-63
2023/07/26 13:54:03;;;;;;;5.85;2.42;;;;;;;19.61;55.69;96470.22;2068874;28;20300;-63
2023/07/26 13:55:05;;;;;;;5.28;2.72;;;;;;;19.04;56.36;96464.34;2070420;28;20217;-62
2023/07/26 13:56:07;;;;;;;6.70;2.60;;;;;;;19.19;57.83;96475.50;2066594;28;20200;-62
2023/07/26 13:57:09;;;;;;;7.53;2.42;;;;;;;19.59;56.99;96472.16;2073460;28;20201;-63
2023/07/26 13:58:14;;;;;;;5.50;2.70;;;;;;;19.38;57.92;96480.94;2074853;28;20284;-62
2023/07/26 13:59:16;;;;;;;9.25;3.00;;;;;;;18.87;57.89;96471.00;2075603;28;20193;-63
2023/07/26 14:00:17;;;;;;;6.43;2.65;;;;;;;19.21;58.61;96484.97;2074945;28;20259;-63
2023/07/26 14:01:19;;;;;;;5.43;2.55;;;;;;;19.34;57.25;96473.38;2072611;28;20198;-62
2023/07/26 14:02:22;;;;;;;7.72;2.75;;;;;;;19.29;56.83;96472.91;2071866;28;20201;-63
2023/07/26 14:03:23;;;;;;;5.68;2.60;;;;;;;19.10;57.90;96485.03;2071529;28;20274;-63
2023/07/26 14:04:25;;;;;;;6.68;2.63;;;;;;;18.65;58.26;96493.03;2071968;28;20201;-63
2023/07/26 14:05:26;;;;;;;5.40;2.92;;;;;;;18.94;56.71;96488.06;2077183;28;20201;-62
2023/07/26 14:06:29;;;;;;;4.82;2.58;;;;;;;19.30;57.16;96493.13;2075142;28;20706;-62
2023/07/26 14:07:31;;;;;;;5.20;2.10;;;;;;;18.93;58.13;96495.16;2074170;28;20201;-63
2023/07/26 14:08:33;;;;;;;7.03;2.60;;;;;;;19.37;56.92;96495.13;2073233;28;20291;-63
2023/07/26 14:09:34;;;;;;;5.80;3.05;;;;;;;19.62;56.73;96484.28;2070575;28;20205;-62
2023/07/26 14:10:36;;;;;;;5.07;2.55;;;;;;;19.39;56.75;96487.09;2074098;28;20224;-63
2023/07/26 14:11:37;;;;;;;7.97;3.45;;;;;;;18.85;57.63;96486.13;2073405;28;20296;-63
2023/07/26 14:12:39;;;;;;;9.10;2.63;;;;;;;18.80;58.44;96494.44;2073702;28;20228;-63
2023/07/26 14:13:40;;;;;;;6.93;2.60;;;;;;;18.63;58.62;96493.16;2074236;28;20634;-63
2023/07/26 14:14:41;;;;;;;5.32;2.45;;;;;;;18.58;58.60;96495.31;2071675;28;20556;-63
2023/07/26 14:15:43;;;;;;;5.50;2.67;;;;;;;18.82;58.29;96476.66;2071738;28;20301;-62
2023/07/26 14:16:44;;;;;;;6.18;2.70;;;;;;;18.63;58.44;96490.50;2070412;28;20194;-63
2023/07/26 14:17:46;;;;;;;5.80;2.83;;;;;;;18.30;59.44;96502.78;2069304;28;20226;-62
2023/07/26 14:18:48;;;;;;;5.50;3.10;;;;;;;18.39;59.01;96501.22;2068155;28;20223;-62
2023/07/26 14:19:49;;;;;;;6.22;2.60;;;;;;;18.98;58.07;96501.88;2070677;28;20205;-62
2023/07/26 14:20:51;;;;;;;9.35;3.03;;;;;;;19.12;57.71;96498.94;2074304;28;20204;-62
2023/07/26 14:21:53;;;;;;;9.30;2.60;;;;;;;18.66;58.35;96502.66;2074852;28;20251;-62
2023/07/26 14:22:54;;;;;;;7.65;2.55;;;;;;;18.95;57.74;96495.03;2073593;28;20200;-62
2023/07/26 14:23:56;;;;;;;6.97;2.58;;;;;;;19.09;58.21;96493.91;2070676;28;20707;-62
2023/07/26 14:24:57;;;;;;;8.68;2.67;;;;;;;18.95;58.44;96505.63;2070152;28;20248;-62
2023/07/26 14:26:00;;;;;;;5.00;2.40;;;;;;;18.86;58.74;96498.41;2070790;28;20285;-62
2023/07/26 14:27:01;;;;;;;5.45;2.22;;;;;;;18.81;58.99;96497.94;2071830;28;20666;-61
2023/07/26 14:28:03;;;;;;;6.47;2.70;;;;;;;18.85;58.81;96499.38;2073117;28;20219;-62
2023/07/26 14:29:04;;;;;;;6.88;2.95;;;;;;;18.69;58.19;96497.94;2078173;28;20204;-62
2023/07/26 14:30:07;;;;;;;6.20;3.13;;;;;;;18.40;58.57;96502.91;2077385;28;20185;-62
2023/07/26 14:31:08;;;;;;;8.45;4.18;;;;;;;18.42;59.25;96504.47;2077009;28;20201;-62
2023/07/26 14:32:10;;;;;;;5.75;3.20;;;;;;;18.29;58.87;96493.16;2075650;28;20205;-63
2023/07/26 14:33:11;;;;;;;6.60;3.30;;;;;;;17.94;59.51;96500.25;2075425;28;20197;-62
2023/07/26 14:34:13;;;;;;;5.32;2.15;;;;;;;17.98;60.19;96505.28;2072908;28;20208;-63
2023/07/26 14:35:14;;;;;;;7.72;2.45;;;;;;;18.03;59.95;96501.34;2072333;28;20219;-63
2023/07/26 14:36:16;;;;;;;16.30;3.58;;;;;;;18.33;60.13;96502.53;2074984;28;20190;-63
2023/07/26 14:37:19;;;;;;;6.90;2.65;;;;;;;18.62;59.46;96514.44;2074335;28;20340;-63